createdAt,value
2023-05-19T00:01:08.991Z,102864.91
2023-05-19T00:05:12.919Z,102869.31
2023-05-19T00:09:14.600Z,102862.44
2023-05-19T00:13:16.299Z,102862.59
2023-05-19T00:17:18.189Z,102861.88
2023-05-19T00:21:20.615Z,102867.66
2023-05-19T00:25:22.305Z,102863.38
2023-05-19T00:29:23.999Z,102865.94
2023-05-19T00:33:25.612Z,102856.56
2023-05-19T00:37:27.717Z,102858.09
2023-05-19T00:41:29.821Z,102860.19
2023-05-19T00:45:31.648Z,102859.56
2023-05-19T00:49:33.660Z,102859.25
2023-05-19T00:53:35.554Z,102856.69
2023-05-19T00:57:38.484Z,102854.28
2023-05-19T01:01:40.460Z,102848.75
2023-05-19T01:05:44.670Z,102851.50
2023-05-19T01:09:47.072Z,102856.50
2023-05-19T01:13:49.133Z,102854.22
2023-05-19T01:18:20.958Z,102851.25
2023-05-19T01:22:32.946Z,102855.84
2023-05-19T01:27:14.536Z,102856.66
2023-05-19T01:31:18.893Z,102856.03
2023-05-19T01:35:24.335Z,102852.31
2023-05-19T01:39:26.673Z,102845.53
2023-05-19T01:43:29.347Z,102847.75
2023-05-19T01:47:31.132Z,102842.78
2023-05-19T01:51:32.746Z,102843.72
2023-05-19T01:55:37.291Z,102843.88
2023-05-19T01:59:52.471Z,102847.13
2023-05-19T02:04:09.385Z,102849.13
2023-05-19T02:08:39.643Z,102844.75
2023-05-19T02:12:41.450Z,102849.13
2023-05-19T02:16:46.325Z,102842.94
2023-05-19T02:20:48.512Z,102844.91
2023-05-19T02:24:51.669Z,102843.34
2023-05-19T02:28:53.475Z,102833.25
2023-05-19T02:32:55.405Z,102835.41
2023-05-19T02:36:57.727Z,102844.25
2023-05-19T02:40:59.600Z,102841.72
2023-05-19T02:45:01.265Z,102844.63
2023-05-19T02:49:02.903Z,102850.31
2023-05-19T02:53:04.549Z,102855.00
2023-05-19T02:57:06.818Z,102864.91
2023-05-19T03:01:09.109Z,102863.78
2023-05-19T03:05:10.863Z,102858.34
2023-05-19T03:09:15.159Z,102856.69
2023-05-19T03:13:17.096Z,102856.38
2023-05-19T03:17:18.727Z,102853.25
2023-05-19T03:21:20.465Z,102854.09
2023-05-19T03:25:22.496Z,102858.56
2023-05-19T03:29:24.268Z,102855.63
2023-05-19T03:33:28.043Z,102852.81
2023-05-19T03:37:30.230Z,102858.19
2023-05-19T03:41:32.859Z,102851.09
2023-05-19T03:45:35.733Z,102851.19
2023-05-19T03:49:49.873Z,102862.63
2023-05-19T03:53:54.111Z,102853.28
2023-05-19T03:57:56.957Z,102866.16
2023-05-19T04:01:58.571Z,102868.53
2023-05-19T04:06:01.144Z,102863.22
2023-05-19T04:10:06.309Z,102866.09
2023-05-19T04:14:08.994Z,102853.84
2023-05-19T04:18:11.613Z,102847.13
2023-05-19T04:22:15.346Z,102865.22
2023-05-19T04:26:18.030Z,102860.59
2023-05-19T04:30:22.430Z,102864.50
2023-05-19T04:34:25.391Z,102863.72
2023-05-19T04:38:29.905Z,102863.09
2023-05-19T04:42:32.972Z,102863.22
2023-05-19T04:46:36.823Z,102863.53
2023-05-19T04:50:42.028Z,102861.00
2023-05-19T04:54:44.233Z,102868.88
2023-05-19T04:58:49.022Z,102863.72
2023-05-19T05:02:51.647Z,102863.91
2023-05-19T05:06:55.874Z,102864.03
2023-05-19T05:10:59.434Z,102867.19
2023-05-19T05:15:01.665Z,102865.88
2023-05-19T05:19:04.141Z,102866.00
2023-05-19T05:23:06.740Z,102864.63
2023-05-19T05:27:10.073Z,102861.66
2023-05-19T05:31:12.304Z,102861.59
2023-05-19T05:39:38.484Z,102864.34
2023-05-19T05:43:40.758Z,102868.44
2023-05-19T05:47:43.109Z,102873.66
2023-05-19T05:52:01.481Z,102870.94
2023-05-19T05:56:10.071Z,102867.72
2023-05-19T06:00:19.750Z,102867.38
2023-05-19T06:04:26.611Z,102869.09
2023-05-19T06:08:28.978Z,102863.63
2023-05-19T06:12:30.727Z,102867.09
2023-05-19T06:16:32.666Z,102864.75
2023-05-19T06:20:34.424Z,102873.97
2023-05-19T06:24:38.746Z,102864.22
2023-05-19T06:28:43.583Z,102864.53
2023-05-19T06:32:46.174Z,102869.50
2023-05-19T06:36:48.199Z,102857.56
2023-05-19T06:40:50.862Z,102857.47
2023-05-19T06:44:53.976Z,102857.97
2023-05-19T06:48:55.970Z,102858.03
2023-05-19T06:52:59.504Z,102850.41
2023-05-19T06:57:01.267Z,102855.56
2023-05-19T07:01:02.945Z,102849.22
2023-05-19T07:05:11.115Z,102862.63
2023-05-19T07:09:13.040Z,102850.53
2023-05-19T07:13:15.711Z,102862.09
2023-05-19T07:17:17.436Z,102861.19
2023-05-19T07:21:20.703Z,102857.28
2023-05-19T07:25:23.758Z,102860.28
2023-05-19T07:29:25.767Z,102856.31
2023-05-19T07:33:27.402Z,102856.88
2023-05-19T07:37:29.037Z,102859.31
2023-05-19T07:41:30.717Z,102857.63
2023-05-19T07:45:32.674Z,102845.97
2023-05-19T07:49:34.331Z,102848.75
2023-05-19T07:53:36.857Z,102850.69
2023-05-19T07:57:38.442Z,102842.19
2023-05-19T08:01:40.011Z,102835.28
2023-05-19T08:05:41.999Z,102835.53
2023-05-19T08:09:43.739Z,102838.00
2023-05-19T08:13:48.452Z,102840.16
2023-05-19T08:17:50.157Z,102832.34
2023-05-19T08:21:51.992Z,102834.59
2023-05-19T08:25:53.653Z,102834.94
2023-05-19T08:29:55.856Z,102833.69
2023-05-19T08:33:57.571Z,102834.19
2023-05-19T08:37:59.188Z,102830.25
2023-05-19T08:42:01.487Z,102829.22
2023-05-19T08:46:03.900Z,102822.38
2023-05-19T08:50:07.818Z,102824.59
2023-05-19T08:54:15.864Z,102827.84
2023-05-19T08:58:20.388Z,102820.94
2023-05-19T09:02:22.565Z,102802.97
2023-05-19T09:06:25.306Z,102811.22
2023-05-19T09:10:28.435Z,102808.38
2023-05-19T09:14:31.028Z,102802.72
2023-05-19T09:18:32.680Z,102809.16
2023-05-19T09:22:36.510Z,102801.56
2023-05-19T09:26:42.769Z,102799.38
2023-05-19T09:30:44.405Z,102803.88
2023-05-19T09:34:47.342Z,102804.63
2023-05-19T09:38:49.294Z,102798.25
2023-05-19T09:43:05.440Z,102801.63
2023-05-19T09:47:09.627Z,102794.41
2023-05-19T09:51:12.246Z,102791.66
2023-05-19T09:55:14.277Z,102798.59
2023-05-19T09:59:16.315Z,102791.47
2023-05-19T10:03:18.825Z,102786.22
2023-05-19T10:07:21.185Z,102793.88
2023-05-19T10:11:23.526Z,102773.94
2023-05-19T10:15:25.842Z,102775.84
2023-05-19T10:19:28.762Z,102772.09
2023-05-19T10:23:30.810Z,102769.03
2023-05-19T10:27:35.718Z,102764.84
2023-05-19T10:31:40.259Z,102771.38
2023-05-19T10:36:08.253Z,102772.41
2023-05-19T10:40:16.998Z,102754.78
2023-05-19T10:44:46.427Z,102753.63
2023-05-19T10:48:48.387Z,102750.56
2023-05-19T10:52:56.820Z,102750.56
2023-05-19T10:56:58.519Z,102742.41
2023-05-19T11:01:01.488Z,102736.09
2023-05-19T11:05:18.295Z,102743.91
2023-05-19T11:09:31.160Z,102734.31
2023-05-19T11:13:43.289Z,102745.47
2023-05-19T11:17:48.880Z,102733.94
2023-05-19T11:21:52.658Z,102738.31
2023-05-19T11:25:54.473Z,102734.25
2023-05-19T11:30:00.498Z,102736.59
2023-05-19T11:38:32.619Z,102730.88
2023-05-19T11:42:35.235Z,102735.81
2023-05-19T11:46:38.074Z,102736.63
2023-05-19T11:50:43.971Z,102729.38
2023-05-19T11:54:48.531Z,102732.13
2023-05-19T11:58:53.246Z,102726.97
2023-05-19T12:02:54.961Z,102717.69
2023-05-19T12:06:56.667Z,102721.19
2023-05-19T12:10:58.266Z,102723.84
2023-05-19T12:15:03.518Z,102722.53
2023-05-19T12:19:09.590Z,102717.28
2023-05-19T12:23:12.033Z,102714.72
2023-05-19T12:27:21.012Z,102717.59
2023-05-19T12:31:25.708Z,102718.09
2023-05-19T12:35:34.472Z,102712.16
2023-05-19T12:39:36.601Z,102713.25
2023-05-19T12:43:38.188Z,102698.75
2023-05-19T12:47:40.240Z,102712.66
2023-05-19T12:51:41.974Z,102700.63
2023-05-19T12:55:45.406Z,102700.63
2023-05-19T12:59:47.308Z,102703.72
2023-05-19T13:03:49.171Z,102692.25
2023-05-19T13:08:11.149Z,102690.41
2023-05-19T13:12:12.943Z,102699.19
2023-05-19T13:16:14.647Z,102675.94
2023-05-19T13:20:16.251Z,102690.69
2023-05-19T13:24:17.991Z,102675.72
2023-05-19T13:28:19.630Z,102679.97
2023-05-19T13:32:21.249Z,102674.59
2023-05-19T13:36:22.871Z,102683.50
2023-05-19T13:40:25.948Z,102691.81
2023-05-19T13:44:27.737Z,102688.38
2023-05-19T13:48:29.659Z,102670.41
2023-05-19T13:52:31.389Z,102670.94
2023-05-19T13:56:32.924Z,102662.78
2023-05-19T14:00:35.792Z,102662.28
2023-05-19T14:04:38.713Z,102665.25
2023-05-19T14:08:41.200Z,102670.78
2023-05-19T14:13:07.960Z,102664.56
2023-05-19T14:17:04.949Z,102662.78
2023-05-19T14:21:06.824Z,102667.69
2023-05-19T14:25:09.873Z,102676.59
2023-05-19T14:29:11.646Z,102669.56
2023-05-19T14:33:13.415Z,102681.25
2023-05-19T14:37:14.940Z,102681.78
2023-05-19T14:41:16.549Z,102688.72
2023-05-19T14:45:18.226Z,102685.56
2023-05-19T14:49:20.096Z,102686.03
2023-05-19T14:53:21.667Z,102677.81
2023-05-19T14:57:23.257Z,102686.09
2023-05-19T15:01:25.008Z,102692.91
2023-05-19T15:05:26.731Z,102693.03
2023-05-19T15:09:28.295Z,102692.72
2023-05-19T15:13:30.175Z,102692.94
2023-05-19T15:17:31.853Z,102696.78
2023-05-19T15:21:33.579Z,102699.75
2023-05-19T15:25:35.258Z,102687.94
2023-05-19T15:29:36.933Z,102695.53
2023-05-19T15:33:38.662Z,102686.38
2023-05-19T15:37:40.342Z,102697.19
2023-05-19T15:41:42.102Z,102695.94
2023-05-19T15:45:43.841Z,102694.44
2023-05-19T15:49:46.095Z,102699.34
2023-05-19T15:53:48.123Z,102705.84
2023-05-19T15:57:49.708Z,102712.28
2023-05-19T16:01:52.874Z,102715.91
2023-05-19T16:05:55.008Z,102722.28
2023-05-19T16:09:56.640Z,102707.84
2023-05-19T16:13:58.130Z,102718.25
2023-05-19T16:17:59.778Z,102697.69
2023-05-19T16:22:01.610Z,102695.09
2023-05-19T16:26:03.276Z,102695.44
2023-05-19T16:30:05.676Z,102694.00
2023-05-19T16:34:07.331Z,102703.53
2023-05-19T16:38:08.928Z,102710.88
2023-05-19T16:42:10.631Z,102708.66
2023-05-19T16:46:12.298Z,102709.38
2023-05-19T16:50:14.182Z,102699.56
2023-05-19T16:54:15.926Z,102704.47
2023-05-19T16:58:17.415Z,102702.13
2023-05-19T17:02:19.001Z,102694.13
2023-05-19T17:06:20.644Z,102694.38
2023-05-19T17:10:22.385Z,102704.25
2023-05-19T17:14:24.081Z,102691.38
2023-05-19T17:18:25.676Z,102696.88
2023-05-19T17:22:29.483Z,102682.03
2023-05-19T17:26:32.515Z,102667.25
2023-05-19T17:30:34.731Z,102675.41
2023-05-19T17:34:36.625Z,102677.56
2023-05-19T17:38:40.345Z,102671.78
2023-05-19T17:42:41.922Z,102675.16
2023-05-19T17:46:43.445Z,102672.31
2023-05-19T17:50:48.844Z,102680.69
2023-05-19T17:54:51.228Z,102683.16
2023-05-19T17:58:53.252Z,102691.13
2023-05-19T18:02:56.867Z,102701.28
2023-05-19T18:06:59.205Z,102699.28
2023-05-19T18:11:01.507Z,102707.88
2023-05-19T18:15:03.699Z,102698.66
2023-05-19T18:19:05.325Z,102699.34
2023-05-19T18:23:07.411Z,102700.25
2023-05-19T18:27:10.892Z,102708.66
2023-05-19T18:31:18.942Z,102711.69
2023-05-19T18:35:23.420Z,102712.69
2023-05-19T18:39:26.577Z,102727.72
2023-05-19T18:43:30.151Z,102718.16
2023-05-19T18:47:31.946Z,102724.31
2023-05-19T18:51:35.920Z,102730.66
2023-05-19T18:55:38.560Z,102738.78
2023-05-19T18:59:40.232Z,102749.56
2023-05-19T19:03:42.326Z,102748.72
2023-05-19T19:07:44.677Z,102750.47
2023-05-19T19:11:46.187Z,102751.41
2023-05-19T19:15:47.764Z,102756.81
2023-05-19T19:19:49.529Z,102758.63
2023-05-19T19:23:53.371Z,102759.50
2023-05-19T19:27:55.047Z,102772.91
2023-05-19T19:31:56.780Z,102767.50
2023-05-19T19:35:58.780Z,102772.88
2023-05-19T19:40:00.583Z,102766.66
2023-05-19T19:44:02.070Z,102771.03
2023-05-19T19:48:03.786Z,102772.91
2023-05-19T19:52:05.874Z,102770.22
2023-05-19T19:56:07.482Z,102768.28
2023-05-19T20:00:09.471Z,102775.41
2023-05-19T20:04:11.492Z,102784.50
2023-05-19T20:08:14.127Z,102784.47
2023-05-19T20:12:17.462Z,102775.53
2023-05-19T20:16:19.375Z,102778.16
2023-05-19T20:20:21.178Z,102776.47
2023-05-19T20:24:22.880Z,102779.13
2023-05-19T20:28:24.629Z,102769.31
2023-05-19T20:32:26.301Z,102778.25
2023-05-19T20:36:28.087Z,102780.94
2023-05-19T20:40:29.835Z,102778.22
2023-05-19T20:44:31.301Z,102785.38
2023-05-19T20:48:32.930Z,102795.19
2023-05-19T20:52:35.169Z,102784.50
2023-05-19T20:56:36.845Z,102790.69
2023-05-19T21:00:38.350Z,102781.81
2023-05-19T21:04:39.950Z,102793.41
2023-05-19T21:08:41.539Z,102794.19
2023-05-19T21:12:43.340Z,102794.97
2023-05-19T21:16:47.891Z,102793.81
2023-05-19T21:20:49.661Z,102799.91
2023-05-19T21:24:51.605Z,102790.97
2023-05-19T21:28:53.250Z,102781.97
2023-05-19T21:32:55.074Z,102792.59
2023-05-19T21:36:56.952Z,102785.44
2023-05-19T21:40:59.076Z,102781.16
2023-05-19T21:45:01.092Z,102785.41
2023-05-19T21:49:02.780Z,102772.59
2023-05-19T21:53:05.086Z,102776.03
2023-05-19T21:57:06.795Z,102768.72
2023-05-19T22:01:08.525Z,102765.00
2023-05-19T22:05:10.627Z,102770.25
2023-05-19T22:09:12.729Z,102765.81
2023-05-19T22:13:14.395Z,102763.69
2023-05-19T22:17:16.188Z,102765.72
2023-05-19T22:21:17.933Z,102766.97
2023-05-19T22:25:20.140Z,102766.53
2023-05-19T22:29:21.883Z,102771.13
2023-05-19T22:33:23.534Z,102763.00
2023-05-19T22:37:25.025Z,102763.41
2023-05-19T22:41:26.777Z,102759.56
2023-05-19T22:45:28.474Z,102762.69
2023-05-19T22:49:30.210Z,102761.03
2023-05-19T22:53:32.040Z,102760.63
2023-05-19T22:57:33.587Z,102762.31
2023-05-19T23:01:35.450Z,102757.81
2023-05-19T23:05:36.950Z,102767.78
2023-05-19T23:09:38.432Z,102755.38
2023-05-19T23:13:39.893Z,102759.44
2023-05-19T23:17:41.571Z,102771.06
2023-05-19T23:21:44.575Z,102772.41
2023-05-19T23:25:46.192Z,102774.41
2023-05-19T23:29:49.119Z,102769.19
2023-05-19T23:33:50.855Z,102764.41
2023-05-19T23:37:53.084Z,102770.44
2023-05-19T23:41:54.780Z,102781.56
2023-05-19T23:45:56.496Z,102779.50
2023-05-19T23:49:58.120Z,102775.41
2023-05-19T23:53:59.878Z,102777.66
2023-05-19T23:58:01.943Z,102774.69
